sensor_id;sensor_type;location;lat;lon;timestamp;temperature;humidity
26408;DHT22;14583;43.604;1.364;2023-04-24T00:00:51;12.80;99.90
26408;DHT22;14583;43.604;1.364;2023-04-24T00:03:17;12.80;99.90
26408;DHT22;14583;43.604;1.364;2023-04-24T00:05:46;12.80;99.90
26408;DHT22;14583;43.604;1.364;2023-04-24T00:08:12;12.80;99.90
26408;DHT22;14583;43.604;1.364;2023-04-24T00:10:37;12.80;99.90
26408;DHT22;14583;43.604;1.364;2023-04-24T00:13:03;12.90;99.90
26408;DHT22;14583;43.604;1.364;2023-04-24T00:15:29;13.00;99.90
26408;DHT22;14583;43.604;1.364;2023-04-24T00:17:54;13.10;99.90
26408;DHT22;14583;43.604;1.364;2023-04-24T00:20:20;13.20;99.90
26408;DHT22;14583;43.604;1.364;2023-04-24T00:22:46;13.20;99.90
26408;DHT22;14583;43.604;1.364;2023-04-24T00:25:12;13.20;99.90
26408;DHT22;14583;43.604;1.364;2023-04-24T00:27:37;13.00;99.90
26408;DHT22;14583;43.604;1.364;2023-04-24T00:30:04;12.90;99.90
26408;DHT22;14583;43.604;1.364;2023-04-24T00:32:30;12.90;99.90
26408;DHT22;14583;43.604;1.364;2023-04-24T00:34:56;13.00;99.90
26408;DHT22;14583;43.604;1.364;2023-04-24T00:37:21;13.00;99.90
26408;DHT22;14583;43.604;1.364;2023-04-24T00:39:47;12.90;99.90
26408;DHT22;14583;43.604;1.364;2023-04-24T00:42:13;12.90;99.90
26408;DHT22;14583;43.604;1.364;2023-04-24T00:44:38;12.80;99.90
26408;DHT22;14583;43.604;1.364;2023-04-24T00:47:04;12.90;99.90
26408;DHT22;14583;43.604;1.364;2023-04-24T00:49:30;12.70;99.90
26408;DHT22;14583;43.604;1.364;2023-04-24T00:51:56;12.60;99.90
26408;DHT22;14583;43.604;1.364;2023-04-24T00:54:22;12.50;99.90
26408;DHT22;14583;43.604;1.364;2023-04-24T00:56:48;12.40;99.90
26408;DHT22;14583;43.604;1.364;2023-04-24T00:59:16;12.50;99.90
26408;DHT22;14583;43.604;1.364;2023-04-24T01:01:43;12.50;99.90
26408;DHT22;14583;43.604;1.364;2023-04-24T01:04:09;12.50;99.90
26408;DHT22;14583;43.604;1.364;2023-04-24T01:06:39;12.60;99.90
26408;DHT22;14583;43.604;1.364;2023-04-24T01:09:05;12.60;99.90
26408;DHT22;14583;43.604;1.364;2023-04-24T01:11:33;12.60;99.90
26408;DHT22;14583;43.604;1.364;2023-04-24T01:13:59;12.60;99.90
26408;DHT22;14583;43.604;1.364;2023-04-24T01:16:25;12.50;99.90
26408;DHT22;14583;43.604;1.364;2023-04-24T01:18:51;12.40;99.90
26408;DHT22;14583;43.604;1.364;2023-04-24T01:21:18;12.30;99.90
26408;DHT22;14583;43.604;1.364;2023-04-24T01:23:46;12.20;99.90
26408;DHT22;14583;43.604;1.364;2023-04-24T01:26:12;12.30;99.90
26408;DHT22;14583;43.604;1.364;2023-04-24T01:28:38;12.30;99.90
26408;DHT22;14583;43.604;1.364;2023-04-24T01:31:05;12.30;99.90
26408;DHT22;14583;43.604;1.364;2023-04-24T01:33:30;12.30;99.90
26408;DHT22;14583;43.604;1.364;2023-04-24T01:35:57;12.30;99.90
26408;DHT22;14583;43.604;1.364;2023-04-24T01:38:23;12.40;99.90
26408;DHT22;14583;43.604;1.364;2023-04-24T01:40:49;12.40;99.90
26408;DHT22;14583;43.604;1.364;2023-04-24T01:43:16;12.40;99.90
26408;DHT22;14583;43.604;1.364;2023-04-24T01:45:42;12.30;99.90
26408;DHT22;14583;43.604;1.364;2023-04-24T01:48:07;12.30;99.90
26408;DHT22;14583;43.604;1.364;2023-04-24T01:50:33;12.40;99.90
26408;DHT22;14583;43.604;1.364;2023-04-24T01:52:59;12.50;99.90
26408;DHT22;14583;43.604;1.364;2023-04-24T01:55:25;12.60;99.90
26408;DHT22;14583;43.604;1.364;2023-04-24T01:57:52;12.50;99.90
26408;DHT22;14583;43.604;1.364;2023-04-24T02:00:21;12.40;99.90
26408;DHT22;14583;43.604;1.364;2023-04-24T02:02:47;12.40;99.90
26408;DHT22;14583;43.604;1.364;2023-04-24T02:05:12;12.40;99.90
26408;DHT22;14583;43.604;1.364;2023-04-24T02:07:38;12.40;99.90
26408;DHT22;14583;43.604;1.364;2023-04-24T02:10:04;12.30;99.90
26408;DHT22;14583;43.604;1.364;2023-04-24T02:12:30;11.80;99.90
26408;DHT22;14583;43.604;1.364;2023-04-24T02:14:55;11.70;99.90
26408;DHT22;14583;43.604;1.364;2023-04-24T02:17:21;11.60;99.90
26408;DHT22;14583;43.604;1.364;2023-04-24T02:19:47;11.60;99.90
26408;DHT22;14583;43.604;1.364;2023-04-24T02:22:13;11.50;99.90
26408;DHT22;14583;43.604;1.364;2023-04-24T02:24:39;11.70;99.90
26408;DHT22;14583;43.604;1.364;2023-04-24T02:27:04;11.80;99.90
26408;DHT22;14583;43.604;1.364;2023-04-24T02:29:31;11.90;99.90
26408;DHT22;14583;43.604;1.364;2023-04-24T02:31:57;11.90;99.90
26408;DHT22;14583;43.604;1.364;2023-04-24T02:34:22;11.80;99.90
26408;DHT22;14583;43.604;1.364;2023-04-24T02:36:48;11.90;99.90
26408;DHT22;14583;43.604;1.364;2023-04-24T02:39:14;11.90;99.90
26408;DHT22;14583;43.604;1.364;2023-04-24T02:41:44;11.80;99.90
26408;DHT22;14583;43.604;1.364;2023-04-24T02:44:10;11.80;99.90
26408;DHT22;14583;43.604;1.364;2023-04-24T02:46:36;11.60;99.90
26408;DHT22;14583;43.604;1.364;2023-04-24T02:49:01;11.40;99.90
26408;DHT22;14583;43.604;1.364;2023-04-24T02:51:28;11.40;99.90
26408;DHT22;14583;43.604;1.364;2023-04-24T02:53:53;11.50;99.90
26408;DHT22;14583;43.604;1.364;2023-04-24T02:56:19;11.70;99.90
26408;DHT22;14583;43.604;1.364;2023-04-24T02:58:45;11.80;99.90
26408;DHT22;14583;43.604;1.364;2023-04-24T03:01:10;11.90;99.90
26408;DHT22;14583;43.604;1.364;2023-04-24T03:03:37;12.00;99.90
26408;DHT22;14583;43.604;1.364;2023-04-24T03:06:03;12.10;99.90
26408;DHT22;14583;43.604;1.364;2023-04-24T03:08:34;12.10;99.90
26408;DHT22;14583;43.604;1.364;2023-04-24T03:11:00;12.00;99.90
26408;DHT22;14583;43.604;1.364;2023-04-24T03:13:26;11.90;99.90
26408;DHT22;14583;43.604;1.364;2023-04-24T03:15:51;11.80;99.90
26408;DHT22;14583;43.604;1.364;2023-04-24T03:18:18;11.90;99.90
26408;DHT22;14583;43.604;1.364;2023-04-24T03:20:48;11.90;99.90
26408;DHT22;14583;43.604;1.364;2023-04-24T03:23:14;11.90;99.90
26408;DHT22;14583;43.604;1.364;2023-04-24T03:25:40;11.90;99.90
26408;DHT22;14583;43.604;1.364;2023-04-24T03:28:08;11.90;99.90
26408;DHT22;14583;43.604;1.364;2023-04-24T03:30:34;11.90;99.90
26408;DHT22;14583;43.604;1.364;2023-04-24T03:33:00;11.80;99.90
26408;DHT22;14583;43.604;1.364;2023-04-24T03:35:25;11.90;99.90
26408;DHT22;14583;43.604;1.364;2023-04-24T03:37:51;11.90;99.90
26408;DHT22;14583;43.604;1.364;2023-04-24T03:40:17;11.80;99.90
26408;DHT22;14583;43.604;1.364;2023-04-24T03:42:42;11.70;99.90
26408;DHT22;14583;43.604;1.364;2023-04-24T03:45:09;11.80;99.90
26408;DHT22;14583;43.604;1.364;2023-04-24T03:47:34;11.90;99.90
26408;DHT22;14583;43.604;1.364;2023-04-24T03:50:01;12.00;99.90
26408;DHT22;14583;43.604;1.364;2023-04-24T03:52:27;12.10;99.90
26408;DHT22;14583;43.604;1.364;2023-04-24T03:54:52;12.00;99.90
26408;DHT22;14583;43.604;1.364;2023-04-24T03:57:18;12.00;99.90
26408;DHT22;14583;43.604;1.364;2023-04-24T03:59:44;12.10;99.90
26408;DHT22;14583;43.604;1.364;2023-04-24T04:02:10;12.20;99.90
26408;DHT22;14583;43.604;1.364;2023-04-24T04:04:35;12.30;99.90
26408;DHT22;14583;43.604;1.364;2023-04-24T04:07:01;12.20;99.90
26408;DHT22;14583;43.604;1.364;2023-04-24T04:09:28;12.30;99.90
26408;DHT22;14583;43.604;1.364;2023-04-24T04:11:54;12.30;99.90
26408;DHT22;14583;43.604;1.364;2023-04-24T04:14:21;12.30;99.90
26408;DHT22;14583;43.604;1.364;2023-04-24T04:16:47;12.30;99.90
26408;DHT22;14583;43.604;1.364;2023-04-24T04:19:12;12.40;99.90
26408;DHT22;14583;43.604;1.364;2023-04-24T04:21:38;12.30;99.90
26408;DHT22;14583;43.604;1.364;2023-04-24T04:24:04;12.30;99.90
26408;DHT22;14583;43.604;1.364;2023-04-24T04:26:30;12.30;99.90
26408;DHT22;14583;43.604;1.364;2023-04-24T04:28:58;12.30;99.90
26408;DHT22;14583;43.604;1.364;2023-04-24T04:31:24;12.20;99.90
26408;DHT22;14583;43.604;1.364;2023-04-24T04:33:50;12.20;99.90
26408;DHT22;14583;43.604;1.364;2023-04-24T04:36:15;12.20;99.90
26408;DHT22;14583;43.604;1.364;2023-04-24T04:38:42;12.20;99.90
26408;DHT22;14583;43.604;1.364;2023-04-24T04:41:10;12.20;99.90
26408;DHT22;14583;43.604;1.364;2023-04-24T04:43:36;12.10;99.90
26408;DHT22;14583;43.604;1.364;2023-04-24T04:46:01;12.00;99.90
26408;DHT22;14583;43.604;1.364;2023-04-24T04:48:28;12.00;99.90
26408;DHT22;14583;43.604;1.364;2023-04-24T04:50:57;12.10;99.90
26408;DHT22;14583;43.604;1.364;2023-04-24T04:53:22;12.20;99.90
26408;DHT22;14583;43.604;1.364;2023-04-24T04:55:48;12.10;99.90
26408;DHT22;14583;43.604;1.364;2023-04-24T04:58:14;12.20;99.90
26408;DHT22;14583;43.604;1.364;2023-04-24T05:00:39;12.20;99.90
26408;DHT22;14583;43.604;1.364;2023-04-24T05:03:05;12.20;99.90
26408;DHT22;14583;43.604;1.364;2023-04-24T05:05:31;12.20;99.90
26408;DHT22;14583;43.604;1.364;2023-04-24T05:07:57;12.30;99.90
26408;DHT22;14583;43.604;1.364;2023-04-24T05:10:22;12.20;99.90
26408;DHT22;14583;43.604;1.364;2023-04-24T05:12:48;12.20;99.90
26408;DHT22;14583;43.604;1.364;2023-04-24T05:15:14;12.20;99.90
26408;DHT22;14583;43.604;1.364;2023-04-24T05:17:40;12.30;99.90
26408;DHT22;14583;43.604;1.364;2023-04-24T05:20:06;12.20;99.90
26408;DHT22;14583;43.604;1.364;2023-04-24T05:22:32;12.10;99.90
26408;DHT22;14583;43.604;1.364;2023-04-24T05:24:58;12.20;99.90
26408;DHT22;14583;43.604;1.364;2023-04-24T05:27:24;12.10;99.90
26408;DHT22;14583;43.604;1.364;2023-04-24T05:29:50;12.10;99.90
26408;DHT22;14583;43.604;1.364;2023-04-24T05:32:16;12.10;99.90
26408;DHT22;14583;43.604;1.364;2023-04-24T05:34:42;12.10;99.90
26408;DHT22;14583;43.604;1.364;2023-04-24T05:37:07;12.10;99.90
26408;DHT22;14583;43.604;1.364;2023-04-24T05:39:35;12.20;99.90
26408;DHT22;14583;43.604;1.364;2023-04-24T05:42:02;12.20;99.90
26408;DHT22;14583;43.604;1.364;2023-04-24T05:44:28;12.40;99.90
26408;DHT22;14583;43.604;1.364;2023-04-24T05:46:57;12.30;99.90
26408;DHT22;14583;43.604;1.364;2023-04-24T05:49:22;12.40;99.90
26408;DHT22;14583;43.604;1.364;2023-04-24T05:51:48;12.50;99.90
26408;DHT22;14583;43.604;1.364;2023-04-24T05:54:14;12.70;99.90
26408;DHT22;14583;43.604;1.364;2023-04-24T05:56:40;12.60;99.90
26408;DHT22;14583;43.604;1.364;2023-04-24T05:59:05;12.70;99.90
26408;DHT22;14583;43.604;1.364;2023-04-24T06:01:31;12.70;99.90
26408;DHT22;14583;43.604;1.364;2023-04-24T06:03:57;12.80;99.90
26408;DHT22;14583;43.604;1.364;2023-04-24T06:06:23;12.80;99.90
26408;DHT22;14583;43.604;1.364;2023-04-24T06:08:49;12.80;99.90
26408;DHT22;14583;43.604;1.364;2023-04-24T06:11:15;12.80;99.90
26408;DHT22;14583;43.604;1.364;2023-04-24T06:13:41;12.80;99.90
26408;DHT22;14583;43.604;1.364;2023-04-24T06:16:06;13.00;99.90
26408;DHT22;14583;43.604;1.364;2023-04-24T06:18:32;13.00;99.90
26408;DHT22;14583;43.604;1.364;2023-04-24T06:20:58;13.10;99.90
26408;DHT22;14583;43.604;1.364;2023-04-24T06:23:23;13.10;99.90
26408;DHT22;14583;43.604;1.364;2023-04-24T06:25:49;13.10;99.90
26408;DHT22;14583;43.604;1.364;2023-04-24T06:28:15;13.10;99.90
26408;DHT22;14583;43.604;1.364;2023-04-24T06:30:41;13.10;99.90
26408;DHT22;14583;43.604;1.364;2023-04-24T06:33:06;13.10;99.90
26408;DHT22;14583;43.604;1.364;2023-04-24T06:35:32;13.10;99.90
26408;DHT22;14583;43.604;1.364;2023-04-24T06:37:58;13.20;99.90
26408;DHT22;14583;43.604;1.364;2023-04-24T06:40:24;13.20;99.90
26408;DHT22;14583;43.604;1.364;2023-04-24T06:42:49;13.30;99.90
26408;DHT22;14583;43.604;1.364;2023-04-24T06:45:15;13.30;99.90
26408;DHT22;14583;43.604;1.364;2023-04-24T06:47:41;13.30;99.90
26408;DHT22;14583;43.604;1.364;2023-04-24T06:50:07;13.20;99.90
26408;DHT22;14583;43.604;1.364;2023-04-24T06:52:32;13.30;99.90
26408;DHT22;14583;43.604;1.364;2023-04-24T06:55:02;13.40;99.90
26408;DHT22;14583;43.604;1.364;2023-04-24T06:57:28;13.40;99.90
26408;DHT22;14583;43.604;1.364;2023-04-24T06:59:55;13.40;99.90
26408;DHT22;14583;43.604;1.364;2023-04-24T07:02:20;13.40;99.90
26408;DHT22;14583;43.604;1.364;2023-04-24T07:04:46;13.40;99.90
26408;DHT22;14583;43.604;1.364;2023-04-24T07:07:13;13.40;99.90
26408;DHT22;14583;43.604;1.364;2023-04-24T07:09:40;13.30;99.90
26408;DHT22;14583;43.604;1.364;2023-04-24T07:12:08;13.40;99.90
26408;DHT22;14583;43.604;1.364;2023-04-24T07:14:37;13.40;99.90
26408;DHT22;14583;43.604;1.364;2023-04-24T07:17:03;13.40;99.90
26408;DHT22;14583;43.604;1.364;2023-04-24T07:19:29;13.40;99.90
26408;DHT22;14583;43.604;1.364;2023-04-24T07:21:55;13.30;99.90
26408;DHT22;14583;43.604;1.364;2023-04-24T07:24:21;13.20;99.90
26408;DHT22;14583;43.604;1.364;2023-04-24T07:26:46;13.20;99.90
26408;DHT22;14583;43.604;1.364;2023-04-24T07:29:12;13.20;99.90
26408;DHT22;14583;43.604;1.364;2023-04-24T07:31:38;13.30;99.90
26408;DHT22;14583;43.604;1.364;2023-04-24T07:34:06;13.20;99.90
26408;DHT22;14583;43.604;1.364;2023-04-24T07:36:32;13.20;99.90
26408;DHT22;14583;43.604;1.364;2023-04-24T07:38:57;13.30;99.90
26408;DHT22;14583;43.604;1.364;2023-04-24T07:41:23;13.20;99.90
26408;DHT22;14583;43.604;1.364;2023-04-24T07:43:49;13.20;99.90
26408;DHT22;14583;43.604;1.364;2023-04-24T07:46:15;13.30;99.90
26408;DHT22;14583;43.604;1.364;2023-04-24T07:48:41;13.30;99.90
26408;DHT22;14583;43.604;1.364;2023-04-24T07:51:07;13.50;99.90
26408;DHT22;14583;43.604;1.364;2023-04-24T07:53:35;13.50;99.90
26408;DHT22;14583;43.604;1.364;2023-04-24T07:56:01;13.60;99.90
26408;DHT22;14583;43.604;1.364;2023-04-24T07:58:26;13.70;99.90
26408;DHT22;14583;43.604;1.364;2023-04-24T08:00:52;13.70;99.90
26408;DHT22;14583;43.604;1.364;2023-04-24T08:03:18;13.70;99.90
26408;DHT22;14583;43.604;1.364;2023-04-24T08:05:45;13.70;99.90
26408;DHT22;14583;43.604;1.364;2023-04-24T08:08:11;13.80;99.90
26408;DHT22;14583;43.604;1.364;2023-04-24T08:10:36;13.90;99.90
26408;DHT22;14583;43.604;1.364;2023-04-24T08:13:02;14.00;99.90
26408;DHT22;14583;43.604;1.364;2023-04-24T08:15:28;14.10;99.90
26408;DHT22;14583;43.604;1.364;2023-04-24T08:17:53;14.10;99.90
26408;DHT22;14583;43.604;1.364;2023-04-24T08:20:19;14.10;99.90
26408;DHT22;14583;43.604;1.364;2023-04-24T08:22:45;14.00;99.90
26408;DHT22;14583;43.604;1.364;2023-04-24T08:25:12;14.00;99.90
26408;DHT22;14583;43.604;1.364;2023-04-24T08:27:38;14.10;99.90
26408;DHT22;14583;43.604;1.364;2023-04-24T08:30:05;14.10;99.90
26408;DHT22;14583;43.604;1.364;2023-04-24T08:32:30;14.00;99.90
26408;DHT22;14583;43.604;1.364;2023-04-24T08:34:57;14.20;99.90
26408;DHT22;14583;43.604;1.364;2023-04-24T08:37:26;14.40;99.90
26408;DHT22;14583;43.604;1.364;2023-04-24T08:39:52;14.40;99.90
26408;DHT22;14583;43.604;1.364;2023-04-24T08:42:19;14.40;99.90
26408;DHT22;14583;43.604;1.364;2023-04-24T08:44:46;14.60;99.90
26408;DHT22;14583;43.604;1.364;2023-04-24T08:47:12;14.60;99.90
26408;DHT22;14583;43.604;1.364;2023-04-24T08:49:38;14.50;99.90
26408;DHT22;14583;43.604;1.364;2023-04-24T08:52:07;14.30;99.90
26408;DHT22;14583;43.604;1.364;2023-04-24T08:54:36;14.30;99.90
26408;DHT22;14583;43.604;1.364;2023-04-24T08:57:02;14.50;99.90
26408;DHT22;14583;43.604;1.364;2023-04-24T08:59:31;14.60;99.90
26408;DHT22;14583;43.604;1.364;2023-04-24T09:01:57;14.90;99.90
26408;DHT22;14583;43.604;1.364;2023-04-24T09:04:24;14.90;99.90
26408;DHT22;14583;43.604;1.364;2023-04-24T09:06:51;15.00;99.90
26408;DHT22;14583;43.604;1.364;2023-04-24T09:09:17;15.00;99.90
26408;DHT22;14583;43.604;1.364;2023-04-24T09:11:44;15.20;99.90
26408;DHT22;14583;43.604;1.364;2023-04-24T09:14:10;14.90;99.90
26408;DHT22;14583;43.604;1.364;2023-04-24T09:16:36;14.80;99.90
26408;DHT22;14583;43.604;1.364;2023-04-24T09:19:02;14.90;99.90
26408;DHT22;14583;43.604;1.364;2023-04-24T09:21:32;15.10;99.90
26408;DHT22;14583;43.604;1.364;2023-04-24T09:24:00;15.20;99.90
26408;DHT22;14583;43.604;1.364;2023-04-24T09:26:29;15.30;99.90
26408;DHT22;14583;43.604;1.364;2023-04-24T09:28:57;15.40;99.90
26408;DHT22;14583;43.604;1.364;2023-04-24T09:31:23;15.50;99.90
26408;DHT22;14583;43.604;1.364;2023-04-24T09:34:04;15.40;99.90
26408;DHT22;14583;43.604;1.364;2023-04-24T09:36:37;15.50;99.90
26408;DHT22;14583;43.604;1.364;2023-04-24T09:39:05;15.40;99.90
26408;DHT22;14583;43.604;1.364;2023-04-24T09:41:32;15.40;99.90
26408;DHT22;14583;43.604;1.364;2023-04-24T09:44:19;15.30;99.90
26408;DHT22;14583;43.604;1.364;2023-04-24T09:46:56;15.40;99.90
26408;DHT22;14583;43.604;1.364;2023-04-24T09:49:26;15.60;99.90
26408;DHT22;14583;43.604;1.364;2023-04-24T09:52:01;15.70;99.90
26408;DHT22;14583;43.604;1.364;2023-04-24T09:54:27;15.70;99.90
26408;DHT22;14583;43.604;1.364;2023-04-24T09:56:55;15.70;99.90
26408;DHT22;14583;43.604;1.364;2023-04-24T09:59:22;15.70;99.90
26408;DHT22;14583;43.604;1.364;2023-04-24T10:01:47;15.60;99.90
26408;DHT22;14583;43.604;1.364;2023-04-24T10:04:21;15.70;99.90
26408;DHT22;14583;43.604;1.364;2023-04-24T10:06:48;15.70;99.90
26408;DHT22;14583;43.604;1.364;2023-04-24T10:09:15;15.60;99.90
26408;DHT22;14583;43.604;1.364;2023-04-24T10:11:43;15.60;99.90
26408;DHT22;14583;43.604;1.364;2023-04-24T10:14:13;15.70;99.90
26408;DHT22;14583;43.604;1.364;2023-04-24T10:16:40;15.80;99.90
26408;DHT22;14583;43.604;1.364;2023-04-24T10:19:06;16.00;99.90
26408;DHT22;14583;43.604;1.364;2023-04-24T10:21:33;16.10;99.90
26408;DHT22;14583;43.604;1.364;2023-04-24T10:23:59;16.10;99.90
26408;DHT22;14583;43.604;1.364;2023-04-24T10:26:29;16.10;99.90
26408;DHT22;14583;43.604;1.364;2023-04-24T10:28:57;16.30;99.90
26408;DHT22;14583;43.604;1.364;2023-04-24T10:31:24;16.40;99.90
26408;DHT22;14583;43.604;1.364;2023-04-24T10:33:51;16.50;99.90
26408;DHT22;14583;43.604;1.364;2023-04-24T10:36:18;16.60;99.90
26408;DHT22;14583;43.604;1.364;2023-04-24T10:38:45;16.60;99.90
26408;DHT22;14583;43.604;1.364;2023-04-24T10:41:13;16.70;99.90
26408;DHT22;14583;43.604;1.364;2023-04-24T10:43:46;16.80;99.90
26408;DHT22;14583;43.604;1.364;2023-04-24T10:46:19;16.90;99.90
26408;DHT22;14583;43.604;1.364;2023-04-24T10:48:53;16.80;99.90
26408;DHT22;14583;43.604;1.364;2023-04-24T10:51:26;16.60;99.90
26408;DHT22;14583;43.604;1.364;2023-04-24T10:54:29;16.60;99.90
26408;DHT22;14583;43.604;1.364;2023-04-24T10:57:27;16.30;99.90
26408;DHT22;14583;43.604;1.364;2023-04-24T11:00:15;16.20;99.90
26408;DHT22;14583;43.604;1.364;2023-04-24T11:02:41;16.10;99.90
26408;DHT22;14583;43.604;1.364;2023-04-24T11:05:18;16.10;99.90
26408;DHT22;14583;43.604;1.364;2023-04-24T11:08:15;16.10;99.90
26408;DHT22;14583;43.604;1.364;2023-04-24T11:10:46;16.10;99.90
26408;DHT22;14583;43.604;1.364;2023-04-24T11:13:16;16.00;99.90
26408;DHT22;14583;43.604;1.364;2023-04-24T11:15:42;16.00;99.90
26408;DHT22;14583;43.604;1.364;2023-04-24T11:18:16;16.00;99.90
26408;DHT22;14583;43.604;1.364;2023-04-24T11:20:43;16.00;99.90
26408;DHT22;14583;43.604;1.364;2023-04-24T11:23:09;15.90;99.90
26408;DHT22;14583;43.604;1.364;2023-04-24T11:25:37;15.80;99.90
26408;DHT22;14583;43.604;1.364;2023-04-24T11:28:04;15.70;99.90
26408;DHT22;14583;43.604;1.364;2023-04-24T11:30:31;15.90;99.90
26408;DHT22;14583;43.604;1.364;2023-04-24T11:33:03;16.10;99.90
26408;DHT22;14583;43.604;1.364;2023-04-24T11:35:29;16.50;99.90
26408;DHT22;14583;43.604;1.364;2023-04-24T11:38:00;16.90;99.90
26408;DHT22;14583;43.604;1.364;2023-04-24T11:40:28;17.00;99.90
26408;DHT22;14583;43.604;1.364;2023-04-24T11:42:54;16.90;99.90
26408;DHT22;14583;43.604;1.364;2023-04-24T11:45:26;16.80;99.90
26408;DHT22;14583;43.604;1.364;2023-04-24T11:47:52;16.90;99.90
26408;DHT22;14583;43.604;1.364;2023-04-24T11:50:23;16.90;99.90
26408;DHT22;14583;43.604;1.364;2023-04-24T11:52:50;17.00;99.90
26408;DHT22;14583;43.604;1.364;2023-04-24T11:57:59;17.30;99.90
26408;DHT22;14583;43.604;1.364;2023-04-24T12:00:28;17.40;99.90
26408;DHT22;14583;43.604;1.364;2023-04-24T12:03:08;17.40;99.90
26408;DHT22;14583;43.604;1.364;2023-04-24T12:05:35;17.40;99.90
26408;DHT22;14583;43.604;1.364;2023-04-24T12:08:01;17.50;99.90
26408;DHT22;14583;43.604;1.364;2023-04-24T12:10:29;17.70;99.90
26408;DHT22;14583;43.604;1.364;2023-04-24T12:12:56;17.80;99.90
26408;DHT22;14583;43.604;1.364;2023-04-24T12:15:23;17.40;99.90
26408;DHT22;14583;43.604;1.364;2023-04-24T12:17:51;17.20;99.90
26408;DHT22;14583;43.604;1.364;2023-04-24T12:20:17;17.10;99.90
26408;DHT22;14583;43.604;1.364;2023-04-24T12:22:57;17.00;99.90
26408;DHT22;14583;43.604;1.364;2023-04-24T12:25:27;17.20;99.90
26408;DHT22;14583;43.604;1.364;2023-04-24T12:27:55;17.30;99.90
26408;DHT22;14583;43.604;1.364;2023-04-24T12:30:22;17.30;99.90
26408;DHT22;14583;43.604;1.364;2023-04-24T12:32:51;17.30;99.90
26408;DHT22;14583;43.604;1.364;2023-04-24T12:35:25;17.20;99.90
26408;DHT22;14583;43.604;1.364;2023-04-24T12:37:51;17.40;99.90
26408;DHT22;14583;43.604;1.364;2023-04-24T12:40:18;17.50;99.90
26408;DHT22;14583;43.604;1.364;2023-04-24T12:42:48;17.70;99.90
26408;DHT22;14583;43.604;1.364;2023-04-24T12:45:15;18.00;99.90
26408;DHT22;14583;43.604;1.364;2023-04-24T12:47:42;18.30;99.90
26408;DHT22;14583;43.604;1.364;2023-04-24T12:50:09;18.40;99.90
26408;DHT22;14583;43.604;1.364;2023-04-24T12:52:36;18.10;99.90
26408;DHT22;14583;43.604;1.364;2023-04-24T12:55:02;18.20;99.90
26408;DHT22;14583;43.604;1.364;2023-04-24T12:57:29;18.20;99.90
26408;DHT22;14583;43.604;1.364;2023-04-24T12:59:57;18.20;99.90
26408;DHT22;14583;43.604;1.364;2023-04-24T13:02:23;18.50;99.90
26408;DHT22;14583;43.604;1.364;2023-04-24T13:04:49;18.60;99.90
26408;DHT22;14583;43.604;1.364;2023-04-24T13:07:16;18.60;99.90
26408;DHT22;14583;43.604;1.364;2023-04-24T13:09:42;18.70;99.90
26408;DHT22;14583;43.604;1.364;2023-04-24T13:12:09;18.50;99.90
26408;DHT22;14583;43.604;1.364;2023-04-24T13:14:35;18.50;99.90
26408;DHT22;14583;43.604;1.364;2023-04-24T13:17:00;18.30;99.90
26408;DHT22;14583;43.604;1.364;2023-04-24T13:19:27;18.30;99.90
26408;DHT22;14583;43.604;1.364;2023-04-24T13:21:54;18.10;99.90
26408;DHT22;14583;43.604;1.364;2023-04-24T13:24:21;18.00;99.90
26408;DHT22;14583;43.604;1.364;2023-04-24T13:26:50;18.20;99.90
26408;DHT22;14583;43.604;1.364;2023-04-24T13:29:16;18.60;99.90
26408;DHT22;14583;43.604;1.364;2023-04-24T13:31:42;18.70;99.90
26408;DHT22;14583;43.604;1.364;2023-04-24T13:34:08;18.90;99.90
26408;DHT22;14583;43.604;1.364;2023-04-24T13:36:33;19.20;99.90
26408;DHT22;14583;43.604;1.364;2023-04-24T13:38:59;19.60;99.90
26408;DHT22;14583;43.604;1.364;2023-04-24T13:41:25;19.50;99.90
26408;DHT22;14583;43.604;1.364;2023-04-24T13:43:50;19.60;99.90
26408;DHT22;14583;43.604;1.364;2023-04-24T13:46:16;19.70;99.90
26408;DHT22;14583;43.604;1.364;2023-04-24T13:48:42;19.70;99.90
26408;DHT22;14583;43.604;1.364;2023-04-24T13:51:10;19.70;99.90
26408;DHT22;14583;43.604;1.364;2023-04-24T13:53:36;19.60;99.90
26408;DHT22;14583;43.604;1.364;2023-04-24T13:56:04;19.60;99.90
26408;DHT22;14583;43.604;1.364;2023-04-24T13:58:30;19.40;99.90
26408;DHT22;14583;43.604;1.364;2023-04-24T14:00:56;19.40;99.90
26408;DHT22;14583;43.604;1.364;2023-04-24T14:03:21;19.10;99.90
26408;DHT22;14583;43.604;1.364;2023-04-24T14:05:47;19.00;99.90
26408;DHT22;14583;43.604;1.364;2023-04-24T14:08:12;19.00;99.90
26408;DHT22;14583;43.604;1.364;2023-04-24T14:10:38;18.90;99.90
26408;DHT22;14583;43.604;1.364;2023-04-24T14:13:04;18.80;99.90
26408;DHT22;14583;43.604;1.364;2023-04-24T14:15:31;18.70;99.90
26408;DHT22;14583;43.604;1.364;2023-04-24T14:17:56;18.60;99.90
26408;DHT22;14583;43.604;1.364;2023-04-24T14:20:23;18.70;99.90
26408;DHT22;14583;43.604;1.364;2023-04-24T14:22:48;18.50;99.90
26408;DHT22;14583;43.604;1.364;2023-04-24T14:25:14;18.60;99.90
26408;DHT22;14583;43.604;1.364;2023-04-24T14:27:40;18.70;99.90
26408;DHT22;14583;43.604;1.364;2023-04-24T14:30:07;18.90;99.90
26408;DHT22;14583;43.604;1.364;2023-04-24T14:32:33;18.80;99.90
26408;DHT22;14583;43.604;1.364;2023-04-24T14:34:58;18.60;99.90
26408;DHT22;14583;43.604;1.364;2023-04-24T14:37:24;18.30;99.90
26408;DHT22;14583;43.604;1.364;2023-04-24T14:39:50;18.40;99.90
26408;DHT22;14583;43.604;1.364;2023-04-24T14:42:15;18.40;99.90
26408;DHT22;14583;43.604;1.364;2023-04-24T14:44:42;18.40;99.90
26408;DHT22;14583;43.604;1.364;2023-04-24T14:47:08;18.30;99.90
26408;DHT22;14583;43.604;1.364;2023-04-24T14:49:34;18.00;99.90
26408;DHT22;14583;43.604;1.364;2023-04-24T14:51:59;17.90;99.90
26408;DHT22;14583;43.604;1.364;2023-04-24T14:54:25;17.70;99.90
26408;DHT22;14583;43.604;1.364;2023-04-24T14:56:51;17.70;99.90
26408;DHT22;14583;43.604;1.364;2023-04-24T14:59:16;17.60;99.90
26408;DHT22;14583;43.604;1.364;2023-04-24T15:01:44;17.60;99.90
26408;DHT22;14583;43.604;1.364;2023-04-24T15:04:10;17.60;99.90
26408;DHT22;14583;43.604;1.364;2023-04-24T15:06:36;17.50;99.90
26408;DHT22;14583;43.604;1.364;2023-04-24T15:09:01;17.70;99.90
26408;DHT22;14583;43.604;1.364;2023-04-24T15:11:27;17.80;99.90
26408;DHT22;14583;43.604;1.364;2023-04-24T15:13:53;18.00;99.90
26408;DHT22;14583;43.604;1.364;2023-04-24T15:16:18;18.10;99.90
26408;DHT22;14583;43.604;1.364;2023-04-24T15:18:44;18.50;99.90
26408;DHT22;14583;43.604;1.364;2023-04-24T15:21:10;18.70;99.90
26408;DHT22;14583;43.604;1.364;2023-04-24T15:23:36;18.70;99.90
26408;DHT22;14583;43.604;1.364;2023-04-24T15:26:01;18.80;99.90
26408;DHT22;14583;43.604;1.364;2023-04-24T15:28:27;18.80;99.90
26408;DHT22;14583;43.604;1.364;2023-04-24T15:30:53;18.70;99.90